Time;durP1;ratioP1;P1;durP2;ratioP2;P2;SDS_P1;SDS_P2;PMS_P1;PMS_P2;Temp;Humidity;BMP_temperature;BMP_pressure;BME280_temperature;BME280_humidity;BME280_pressure;Samples;Min_cycle;Max_cycle;Signal;HPM_P1;HPM_P2
2023/04/14 00:01:31;;;;;;;10.40;2.95;;;;;;;;;;5032186;28;20041;-76
2023/04/14 00:03:57;;;;;;;11.10;3.40;;;;;;;;;;5031901;28;20038;-75
2023/04/14 00:06:23;;;;;;;10.15;3.25;;;;;;;;;;5032570;28;20063;-77
2023/04/14 00:08:49;;;;;;;11.07;3.22;;;;;;;;;;5030499;28;20060;-76
2023/04/14 00:11:15;;;;;;;9.55;3.50;;;;;;;;;;5032752;28;20125;-75
2023/04/14 00:13:41;;;;;;;10.68;3.33;;;;;;;;;;5032892;28;20562;-76
2023/04/14 00:16:07;;;;;;;11.95;3.20;;;;;;;;;;5031776;28;20120;-76
2023/04/14 00:18:33;;;;;;;10.10;3.13;;;;;;;;;;5051948;28;20127;-75
2023/04/14 00:21:01;;;;;;;14.57;3.08;;;;;;;;;;5051404;28;20037;-76
2023/04/14 00:23:27;;;;;;;12.20;3.58;;;;;;;;;;5052669;28;20091;-76
2023/04/14 00:25:53;;;;;;;11.20;3.60;;;;;;;;;;5052646;28;20059;-76
2023/04/14 00:28:19;;;;;;;12.35;3.45;;;;;;;;;;5052409;28;20037;-76
2023/04/14 00:30:46;;;;;;;10.35;3.30;;;;;;;;;;5052369;28;20497;-75
2023/04/14 00:33:12;;;;;;;11.52;3.67;;;;;;;;;;5034546;28;20501;-75
2023/04/14 00:35:38;;;;;;;11.55;3.40;;;;;;;;;;5034079;28;20045;-75
2023/04/14 00:38:04;;;;;;;10.55;3.70;;;;;;;;;;5049733;28;20059;-75
2023/04/14 00:40:30;;;;;;;10.00;3.22;;;;;;;;;;5052131;28;20049;-75
2023/04/14 00:42:56;;;;;;;9.93;3.30;;;;;;;;;;5052326;28;20405;-75
2023/04/14 00:45:24;;;;;;;11.35;3.25;;;;;;;;;;5050241;28;20044;-75
2023/04/14 00:47:50;;;;;;;9.60;3.30;;;;;;;;;;5013412;28;20058;-75
2023/04/14 00:50:17;;;;;;;9.00;3.40;;;;;;;;;;5027064;28;20119;-75
2023/04/14 00:52:45;;;;;;;8.27;3.05;;;;;;;;;;5034890;28;20052;-75
2023/04/14 00:55:11;;;;;;;10.18;3.25;;;;;;;;;;5052190;28;20041;-76
2023/04/14 00:57:38;;;;;;;10.52;3.30;;;;;;;;;;5017832;28;20049;-76
2023/04/14 01:00:04;;;;;;;9.75;3.10;;;;;;;;;;5034404;28;20044;-75
2023/04/14 01:02:31;;;;;;;8.45;2.97;;;;;;;;;;5052235;28;20449;-75
2023/04/14 01:04:57;;;;;;;7.75;2.85;;;;;;;;;;5033222;28;20147;-75
2023/04/14 01:07:23;;;;;;;9.30;2.55;;;;;;;;;;5052203;28;20057;-75
2023/04/14 01:09:50;;;;;;;9.32;2.85;;;;;;;;;;5052194;28;20072;-75
2023/04/14 01:12:22;;;;;;;10.70;2.58;;;;;;;;;;5051956;28;20048;-76
2023/04/14 01:15:07;;;;;;;9.50;3.28;;;;;;;;;;5043923;28;20068;-76
2023/04/14 01:17:45;;;;;;;9.77;3.20;;;;;;;;;;5052032;28;20060;-75
2023/04/14 01:20:46;;;;;;;9.02;2.78;;;;;;;;;;5034446;28;20059;-75
2023/04/14 01:23:20;;;;;;;11.48;3.08;;;;;;;;;;4954892;28;20137;-76
2023/04/14 01:26:02;;;;;;;9.05;2.63;;;;;;;;;;5022152;28;20053;-76
2023/04/14 01:28:45;;;;;;;9.10;2.67;;;;;;;;;;5052127;28;20041;-76
2023/04/14 01:31:11;;;;;;;12.02;3.17;;;;;;;;;;5050457;28;20116;-76
2023/04/14 01:33:39;;;;;;;6.10;2.60;;;;;;;;;;5051894;28;20494;-76
2023/04/14 01:36:07;;;;;;;12.07;3.00;;;;;;;;;;5051136;28;20095;-75
2023/04/14 01:38:34;;;;;;;9.80;3.00;;;;;;;;;;5033709;28;20056;-75
2023/04/14 01:41:05;;;;;;;9.85;2.80;;;;;;;;;;5015528;28;20033;-76
2023/04/14 01:43:33;;;;;;;8.02;2.95;;;;;;;;;;5017015;28;20044;-75
2023/04/14 01:46:06;;;;;;;8.68;3.00;;;;;;;;;;5048454;28;20041;-76
2023/04/14 01:48:33;;;;;;;9.38;3.10;;;;;;;;;;5040230;28;20041;-75
2023/04/14 01:51:00;;;;;;;11.40;3.00;;;;;;;;;;5051464;28;20041;-76
2023/04/14 01:53:27;;;;;;;8.57;3.00;;;;;;;;;;5051099;28;20048;-76
2023/04/14 01:55:54;;;;;;;10.90;2.90;;;;;;;;;;5052209;28;20513;-76
2023/04/14 01:58:21;;;;;;;7.68;2.55;;;;;;;;;;5037221;28;20041;-76
2023/04/14 02:00:48;;;;;;;9.60;2.75;;;;;;;;;;5055199;28;20051;-76
2023/04/14 02:03:15;;;;;;;10.80;3.30;;;;;;;;;;5055417;28;20037;-76
2023/04/14 02:05:42;;;;;;;8.93;2.78;;;;;;;;;;5055319;28;20045;-76
2023/04/14 02:08:11;;;;;;;7.93;2.70;;;;;;;;;;5054098;28;20072;-76
2023/04/14 02:10:38;;;;;;;7.20;3.00;;;;;;;;;;5034372;28;20041;-75
2023/04/14 02:13:04;;;;;;;8.50;2.92;;;;;;;;;;5035843;28;20055;-75
2023/04/14 02:15:31;;;;;;;7.32;2.90;;;;;;;;;;5019097;28;20385;-76
2023/04/14 02:17:58;;;;;;;8.27;2.80;;;;;;;;;;5055177;28;20045;-76
2023/04/14 02:20:25;;;;;;;10.30;2.85;;;;;;;;;;5055079;28;20045;-76
2023/04/14 02:22:52;;;;;;;8.20;2.65;;;;;;;;;;5055225;28;20378;-76
2023/04/14 02:25:18;;;;;;;12.35;2.90;;;;;;;;;;5037150;28;20117;-76
2023/04/14 02:27:55;;;;;;;9.02;3.00;;;;;;;;;;5020676;28;20055;-75
2023/04/14 02:30:23;;;;;;;10.35;3.08;;;;;;;;;;5037915;28;20068;-76
2023/04/14 02:32:55;;;;;;;11.30;3.00;;;;;;;;;;5055022;28;20091;-76
2023/04/14 02:35:25;;;;;;;8.35;3.25;;;;;;;;;;5055429;28;20148;-76
2023/04/14 02:37:54;;;;;;;10.30;2.90;;;;;;;;;;5055644;28;20393;-75
2023/04/14 02:40:25;;;;;;;8.30;3.00;;;;;;;;;;5054520;28;20155;-75
2023/04/14 02:42:55;;;;;;;7.78;3.22;;;;;;;;;;5054767;28;20048;-75
2023/04/14 02:45:22;;;;;;;6.95;2.50;;;;;;;;;;5054924;28;20505;-76
2023/04/14 02:47:52;;;;;;;12.57;3.10;;;;;;;;;;5053404;28;20051;-76
2023/04/14 02:50:20;;;;;;;7.22;2.80;;;;;;;;;;5036067;28;20041;-76
2023/04/14 02:52:50;;;;;;;12.15;3.55;;;;;;;;;;5054703;28;20047;-76
2023/04/14 02:55:16;;;;;;;8.32;3.03;;;;;;;;;;5036344;28;20051;-76
2023/04/14 02:57:42;;;;;;;10.88;3.00;;;;;;;;;;5054456;28;20045;-76
2023/04/14 03:00:09;;;;;;;8.23;2.88;;;;;;;;;;5054082;28;20355;-76
2023/04/14 03:02:35;;;;;;;7.10;3.10;;;;;;;;;;5051180;28;20126;-76
2023/04/14 03:05:02;;;;;;;10.75;3.20;;;;;;;;;;5046129;28;20045;-76
2023/04/14 03:07:29;;;;;;;8.02;3.00;;;;;;;;;;5052456;28;20045;-75
2023/04/14 03:09:55;;;;;;;9.98;3.20;;;;;;;;;;5045430;28;20041;-76
2023/04/14 03:12:22;;;;;;;8.90;3.30;;;;;;;;;;5052889;28;20398;-76
2023/04/14 03:14:48;;;;;;;8.80;2.97;;;;;;;;;;5054197;28;20387;-76
2023/04/14 03:17:16;;;;;;;7.43;2.80;;;;;;;;;;5054263;28;20375;-76
2023/04/14 03:19:46;;;;;;;7.95;2.83;;;;;;;;;;5035861;28;20053;-76
2023/04/14 03:22:13;;;;;;;8.38;2.58;;;;;;;;;;5053877;28;20516;-76
2023/04/14 03:24:39;;;;;;;7.03;2.92;;;;;;;;;;5034793;28;20063;-76
2023/04/14 03:27:11;;;;;;;11.70;3.20;;;;;;;;;;5024278;28;20076;-76
2023/04/14 03:29:39;;;;;;;9.30;2.88;;;;;;;;;;5054039;28;20045;-75
2023/04/14 03:32:06;;;;;;;6.60;2.90;;;;;;;;;;5052907;28;20075;-76
2023/04/14 03:34:34;;;;;;;7.93;3.13;;;;;;;;;;5052015;28;20047;-75
2023/04/14 03:37:01;;;;;;;8.30;3.05;;;;;;;;;;5035944;28;20048;-76
2023/04/14 03:39:33;;;;;;;8.35;2.92;;;;;;;;;;5053296;28;20052;-76
2023/04/14 03:42:00;;;;;;;11.70;3.55;;;;;;;;;;5035854;28;20044;-76
2023/04/14 03:44:30;;;;;;;8.13;3.20;;;;;;;;;;5035635;28;20037;-76
2023/04/14 03:46:59;;;;;;;10.23;3.65;;;;;;;;;;5046472;28;20042;-76
2023/04/14 03:49:25;;;;;;;11.48;4.10;;;;;;;;;;4994428;28;20061;-76
2023/04/14 03:51:53;;;;;;;8.70;3.25;;;;;;;;;;5012155;28;20041;-76
2023/04/14 03:54:20;;;;;;;9.75;3.17;;;;;;;;;;5028726;28;20038;-76
2023/04/14 03:56:48;;;;;;;8.85;3.75;;;;;;;;;;5015509;28;20080;-76
2023/04/14 03:59:16;;;;;;;12.07;3.75;;;;;;;;;;5015581;28;20135;-76
2023/04/14 04:01:42;;;;;;;12.43;3.15;;;;;;;;;;5020818;28;20072;-75
2023/04/14 04:04:08;;;;;;;9.25;3.10;;;;;;;;;;5018611;28;20047;-76
2023/04/14 04:06:36;;;;;;;14.32;2.97;;;;;;;;;;5035269;28;20393;-76
2023/04/14 04:09:02;;;;;;;19.35;3.30;;;;;;;;;;5052920;28;20139;-76
2023/04/14 04:11:29;;;;;;;10.63;3.10;;;;;;;;;;5053126;28;20370;-76
2023/04/14 04:13:56;;;;;;;10.30;3.15;;;;;;;;;;5035281;28;20041;-76
2023/04/14 04:16:25;;;;;;;8.30;3.13;;;;;;;;;;5018634;28;20048;-76
2023/04/14 04:18:52;;;;;;;9.90;3.20;;;;;;;;;;5034184;28;20049;-76
2023/04/14 04:21:19;;;;;;;7.50;2.90;;;;;;;;;;5052598;28;20132;-76
2023/04/14 04:23:51;;;;;;;7.53;3.10;;;;;;;;;;5052900;28;20049;-76
2023/04/14 04:26:18;;;;;;;6.68;3.25;;;;;;;;;;5052926;28;20090;-76
2023/04/14 04:28:44;;;;;;;9.05;3.55;;;;;;;;;;5034978;28;20055;-76
2023/04/14 04:31:10;;;;;;;8.85;3.45;;;;;;;;;;5037508;28;20064;-75
2023/04/14 04:33:37;;;;;;;10.15;4.22;;;;;;;;;;5051477;28;20549;-76
2023/04/14 04:36:05;;;;;;;9.68;3.70;;;;;;;;;;5052321;28;20132;-76
2023/04/14 04:38:31;;;;;;;9.38;4.10;;;;;;;;;;5051129;28;20128;-76
2023/04/14 04:40:57;;;;;;;9.73;3.60;;;;;;;;;;5052342;28;20045;-76
2023/04/14 04:43:23;;;;;;;15.45;3.95;;;;;;;;;;5052609;28;20083;-76
2023/04/14 04:45:49;;;;;;;10.25;3.40;;;;;;;;;;5052509;28;20041;-76
2023/04/14 04:48:15;;;;;;;13.75;3.60;;;;;;;;;;5052095;28;20408;-76
2023/04/14 04:50:41;;;;;;;6.55;3.15;;;;;;;;;;5052350;28;20141;-76
2023/04/14 04:53:07;;;;;;;9.38;3.50;;;;;;;;;;5043309;28;20200;-76
2023/04/14 04:55:33;;;;;;;10.38;3.35;;;;;;;;;;5031178;28;20049;-76
2023/04/14 04:57:59;;;;;;;8.50;3.30;;;;;;;;;;5043180;28;20060;-76
2023/04/14 05:00:26;;;;;;;10.02;3.72;;;;;;;;;;5049182;28;20049;-75
2023/04/14 05:02:52;;;;;;;11.02;3.85;;;;;;;;;;5034341;28;20045;-75
2023/04/14 05:05:18;;;;;;;13.95;3.80;;;;;;;;;;5052024;28;20064;-76
2023/04/14 05:07:44;;;;;;;10.93;3.50;;;;;;;;;;5050859;28;20075;-75
2023/04/14 05:10:10;;;;;;;10.05;3.83;;;;;;;;;;5050985;28;20037;-75
2023/04/14 05:12:36;;;;;;;8.90;3.42;;;;;;;;;;5051030;28;20053;-75
2023/04/14 05:15:02;;;;;;;10.23;3.28;;;;;;;;;;5050071;28;20366;-77
2023/04/14 05:17:28;;;;;;;9.38;3.53;;;;;;;;;;5050275;28;20045;-77
2023/04/14 05:19:54;;;;;;;10.57;3.75;;;;;;;;;;5033900;28;20088;-77
2023/04/14 05:22:20;;;;;;;11.25;4.00;;;;;;;;;;5050360;28;20071;-77
2023/04/14 05:24:50;;;;;;;10.00;3.60;;;;;;;;;;5051759;28;20465;-77
2023/04/14 05:27:16;;;;;;;14.68;4.35;;;;;;;;;;5051852;28;20098;-82
2023/04/14 05:29:42;;;;;;;11.27;3.70;;;;;;;;;;5051081;28;20128;-79
2023/04/14 05:32:09;;;;;;;11.38;3.85;;;;;;;;;;5052944;28;20441;-78
2023/04/14 05:34:35;;;;;;;10.48;3.55;;;;;;;;;;5035221;28;20049;-78
2023/04/14 05:37:01;;;;;;;8.68;3.75;;;;;;;;;;5038096;28;20049;-78
2023/04/14 05:39:27;;;;;;;14.07;4.28;;;;;;;;;;5037907;28;20142;-78
2023/04/14 05:41:54;;;;;;;11.73;4.10;;;;;;;;;;5055642;28;20041;-78
2023/04/14 05:44:21;;;;;;;7.22;3.40;;;;;;;;;;5037069;28;20049;-78
2023/04/14 05:46:47;;;;;;;12.82;4.78;;;;;;;;;;5035589;28;20045;-79
2023/04/14 05:49:13;;;;;;;13.55;3.70;;;;;;;;;;5035601;28;20041;-78
2023/04/14 05:51:39;;;;;;;9.32;3.80;;;;;;;;;;5035221;28;20444;-78
2023/04/14 05:54:05;;;;;;;11.27;4.05;;;;;;;;;;5017830;28;20038;-77
2023/04/14 05:56:31;;;;;;;16.15;4.00;;;;;;;;;;5035599;28;20081;-78
2023/04/14 05:58:57;;;;;;;14.32;3.97;;;;;;;;;;5029914;28;20102;-78
2023/04/14 06:01:23;;;;;;;12.38;4.40;;;;;;;;;;5054754;28;20052;-78
2023/04/14 06:03:49;;;;;;;12.65;4.32;;;;;;;;;;5020676;28;20091;-77
2023/04/14 06:06:16;;;;;;;11.23;4.25;;;;;;;;;;5054859;28;20052;-78
2023/04/14 06:08:42;;;;;;;12.93;4.40;;;;;;;;;;5054925;28;20398;-78
2023/04/14 06:11:08;;;;;;;15.73;4.13;;;;;;;;;;5037015;28;20044;-77
2023/04/14 06:13:34;;;;;;;12.18;3.92;;;;;;;;;;5055306;28;20049;-80
2023/04/14 06:16:00;;;;;;;9.75;3.67;;;;;;;;;;5055466;28;20048;-78
2023/04/14 06:18:26;;;;;;;10.65;3.58;;;;;;;;;;5037188;28;20045;-78
2023/04/14 06:20:52;;;;;;;11.63;3.88;;;;;;;;;;5054727;28;20045;-78
2023/04/14 06:23:20;;;;;;;8.65;3.72;;;;;;;;;;5054948;28;20143;-78
2023/04/14 06:25:46;;;;;;;12.48;3.90;;;;;;;;;;5018939;28;20041;-78
2023/04/14 06:28:13;;;;;;;14.57;4.00;;;;;;;;;;5020240;28;20068;-79
2023/04/14 06:30:39;;;;;;;12.60;4.00;;;;;;;;;;5054788;28;20111;-79
2023/04/14 06:33:06;;;;;;;8.90;3.58;;;;;;;;;;5053624;28;20049;-79
2023/04/14 06:35:33;;;;;;;12.52;3.47;;;;;;;;;;5036852;28;20516;-79
2023/04/14 06:38:01;;;;;;;11.95;3.42;;;;;;;;;;5026600;28;20088;-79
2023/04/14 06:40:27;;;;;;;13.48;3.25;;;;;;;;;;5050601;28;20076;-78
2023/04/14 06:42:53;;;;;;;10.48;3.13;;;;;;;;;;5035837;28;20084;-79
2023/04/14 06:45:20;;;;;;;15.20;3.63;;;;;;;;;;5052978;28;20064;-79
2023/04/14 06:47:46;;;;;;;9.70;3.20;;;;;;;;;;5052280;28;20053;-79
2023/04/14 06:50:12;;;;;;;8.48;2.63;;;;;;;;;;5036250;28;20071;-78
2023/04/14 06:52:38;;;;;;;9.82;3.03;;;;;;;;;;5054264;28;20041;-79
2023/04/14 06:55:04;;;;;;;9.13;2.65;;;;;;;;;;5054253;28;20374;-79
2023/04/14 06:57:30;;;;;;;10.00;2.90;;;;;;;;;;5036829;28;20082;-78
2023/04/14 06:59:56;;;;;;;10.23;2.72;;;;;;;;;;5054668;28;20486;-79
2023/04/14 07:02:22;;;;;;;14.43;2.75;;;;;;;;;;5054723;28;20101;-79
2023/04/14 07:04:48;;;;;;;10.30;2.80;;;;;;;;;;5054755;28;20041;-79
2023/04/14 07:07:14;;;;;;;9.35;2.70;;;;;;;;;;5054392;28;20045;-78
2023/04/14 07:09:43;;;;;;;10.35;2.72;;;;;;;;;;5019835;28;20060;-79
2023/04/14 07:12:14;;;;;;;13.88;3.08;;;;;;;;;;5019924;28;20067;-78
2023/04/14 07:14:40;;;;;;;8.65;2.65;;;;;;;;;;5019280;28;20508;-78
2023/04/14 07:17:06;;;;;;;9.05;2.28;;;;;;;;;;5018822;28;20132;-79
2023/04/14 07:19:32;;;;;;;11.68;2.53;;;;;;;;;;5033098;28;20063;-79
2023/04/14 07:21:58;;;;;;;11.52;2.60;;;;;;;;;;5054119;28;20063;-80
2023/04/14 07:24:25;;;;;;;9.82;2.63;;;;;;;;;;5035640;28;20037;-78
2023/04/14 07:26:51;;;;;;;12.23;2.38;;;;;;;;;;5033977;28;20049;-79
2023/04/14 07:29:17;;;;;;;10.88;2.42;;;;;;;;;;5051935;28;20114;-79
2023/04/14 07:31:43;;;;;;;9.60;2.40;;;;;;;;;;5043419;28;20057;-78
2023/04/14 07:34:10;;;;;;;12.40;2.50;;;;;;;;;;5052964;28;20073;-79
2023/04/14 07:36:36;;;;;;;6.40;2.10;;;;;;;;;;5051890;28;20122;-78
2023/04/14 07:39:03;;;;;;;9.43;2.72;;;;;;;;;;5044689;28;20040;-78
2023/04/14 07:41:29;;;;;;;10.90;2.45;;;;;;;;;;5053438;28;20037;-78
2023/04/14 07:43:56;;;;;;;10.40;2.20;;;;;;;;;;5052373;28;20044;-79
2023/04/14 07:46:22;;;;;;;9.73;2.40;;;;;;;;;;5032585;28;20083;-79
2023/04/14 07:48:48;;;;;;;13.77;2.85;;;;;;;;;;5063843;28;20521;-79
2023/04/14 07:51:15;;;;;;;11.82;2.63;;;;;;;;;;5047749;28;20401;-77
2023/04/14 07:53:43;;;;;;;16.95;2.60;;;;;;;;;;5049880;28;20048;-75
2023/04/14 07:56:10;;;;;;;8.93;2.65;;;;;;;;;;5053051;28;20096;-75
2023/04/14 07:58:36;;;;;;;9.02;2.10;;;;;;;;;;5049447;28;20189;-75
2023/04/14 08:01:03;;;;;;;10.40;2.38;;;;;;;;;;5052782;28;20406;-75
2023/04/14 08:03:29;;;;;;;11.85;2.47;;;;;;;;;;5052613;28;20505;-75
2023/04/14 08:05:56;;;;;;;13.40;2.42;;;;;;;;;;5027357;28;20059;-74
2023/04/14 08:08:22;;;;;;;11.13;3.15;;;;;;;;;;5059515;28;20056;-74
2023/04/14 08:10:48;;;;;;;13.57;2.50;;;;;;;;;;5042904;28;20523;-74
2023/04/14 08:13:14;;;;;;;10.52;2.38;;;;;;;;;;5052167;28;20119;-76
2023/04/14 08:15:40;;;;;;;8.77;2.33;;;;;;;;;;5052022;28;20494;-75
2023/04/14 08:18:06;;;;;;;12.80;2.83;;;;;;;;;;5046000;28;20083;-76
2023/04/14 08:20:32;;;;;;;10.02;2.78;;;;;;;;;;5050979;28;20134;-75
2023/04/14 08:22:59;;;;;;;9.50;2.50;;;;;;;;;;5042531;28;20045;-75
2023/04/14 08:25:25;;;;;;;10.80;2.42;;;;;;;;;;5051762;28;20041;-75
2023/04/14 08:27:51;;;;;;;10.93;2.85;;;;;;;;;;5062111;28;20040;-75
2023/04/14 08:30:17;;;;;;;14.00;2.60;;;;;;;;;;5053450;28;20060;-76
2023/04/14 08:32:43;;;;;;;10.20;2.55;;;;;;;;;;5050529;28;20068;-75
2023/04/14 08:35:09;;;;;;;12.25;2.75;;;;;;;;;;5050508;28;20504;-77
2023/04/14 08:37:35;;;;;;;8.02;2.53;;;;;;;;;;5039406;28;20045;-76
2023/04/14 08:40:01;;;;;;;11.13;2.70;;;;;;;;;;5044933;28;20470;-76
2023/04/14 08:42:27;;;;;;;17.08;2.90;;;;;;;;;;5051999;28;20111;-76
2023/04/14 08:44:53;;;;;;;13.88;2.65;;;;;;;;;;5042921;28;20049;-76
2023/04/14 08:47:19;;;;;;;22.42;2.80;;;;;;;;;;5042542;28;20079;-77
2023/04/14 08:49:46;;;;;;;7.70;2.50;;;;;;;;;;5030093;28;20041;-77
2023/04/14 08:52:12;;;;;;;17.42;3.10;;;;;;;;;;5043549;28;20041;-77
2023/04/14 08:54:39;;;;;;;9.63;2.42;;;;;;;;;;5053002;28;20423;-82
2023/04/14 08:57:05;;;;;;;10.13;2.33;;;;;;;;;;5050810;28;20049;-74
2023/04/14 08:59:32;;;;;;;10.93;2.50;;;;;;;;;;5050332;28;20041;-76
2023/04/14 09:01:58;;;;;;;8.00;2.75;;;;;;;;;;5042020;28;20183;-75
2023/04/14 09:04:25;;;;;;;12.27;3.00;;;;;;;;;;5050210;28;20402;-76
2023/04/14 09:06:51;;;;;;;11.85;2.70;;;;;;;;;;5043026;28;20052;-77
2023/04/14 09:09:17;;;;;;;10.20;2.60;;;;;;;;;;5050798;28;20098;-76
2023/04/14 09:11:44;;;;;;;11.15;3.20;;;;;;;;;;5049904;28;20045;-75
2023/04/14 09:14:10;;;;;;;8.43;2.50;;;;;;;;;;5045991;28;20086;-77
2023/04/14 09:16:36;;;;;;;11.38;2.70;;;;;;;;;;5052230;28;20048;-76
2023/04/14 09:19:03;;;;;;;9.13;2.50;;;;;;;;;;5044493;28;20156;-76
2023/04/14 09:21:29;;;;;;;8.45;2.60;;;;;;;;;;5034303;28;20355;-76
2023/04/14 09:23:55;;;;;;;10.65;2.85;;;;;;;;;;5026953;28;20049;-77
2023/04/14 09:26:21;;;;;;;8.20;2.35;;;11.90;99.90;;;;;;5052246;28;20402;-77
2023/04/14 09:28:46;;;;;;;10.02;2.38;;;22.10;83.40;;;;;;5052219;28;20033;-77
2023/04/14 09:31:12;;;;;;;8.73;2.40;;;20.40;77.90;;;;;;5045847;28;20561;-77
2023/04/14 09:33:42;;;;;;;10.25;3.05;;;23.00;79.00;;;;;;5052027;28;20041;-77
2023/04/14 09:36:17;;;;;;;11.50;2.70;;;;;;;;;;5052033;28;20041;-77
2023/04/14 09:38:43;;;;;;;13.03;2.43;;;;;;;;;;5051660;28;20049;-77
2023/04/14 09:41:15;;;;;;;10.40;3.05;;;;;;;;;;5051313;28;20048;-77
2023/04/14 09:43:41;;;;;;;9.63;2.65;;;;;;;;;;5049620;28;20392;-77
2023/04/14 09:46:08;;;;;;;9.95;2.97;;;;;;;;;;5051755;28;20044;-77
2023/04/14 09:48:36;;;;;;;8.18;2.60;;;;;;;;;;5034720;28;20045;-77
2023/04/14 09:51:05;;;;;;;9.02;2.67;;;;;;;;;;5048404;28;20045;-78
2023/04/14 09:53:35;;;;;;;8.18;2.70;;;;;;;;;;5031402;28;20040;-79
2023/04/14 09:56:03;;;;;;;10.00;2.50;;;;;;;;;;5041730;28;20508;-76
2023/04/14 09:58:43;;;;;;;10.68;2.95;;;;;;;;;;5031082;28;20462;-76
2023/04/14 10:01:15;;;;;;;9.77;2.53;;;;;;;;;;5031750;28;20499;-77
2023/04/14 10:03:43;;;;;;;8.75;2.45;;;;;;;;;;5041854;28;20436;-78
2023/04/14 10:06:09;;;;;;;8.55;3.35;;;;;;;;;;5051694;28;20060;-78
2023/04/14 10:08:43;;;;;;;8.40;2.80;;;;;;;;;;5051490;28;20405;-78
2023/04/14 10:11:19;;;;;;;6.90;2.45;;;;;;;;;;5044919;28;20048;-77
2023/04/14 10:13:50;;;;;;;9.15;2.75;;;;;;;;;;5051328;28;20045;-77
2023/04/14 10:16:16;;;;;;;8.85;2.50;;;;;;;;;;5051359;28;20045;-78
2023/04/14 10:18:43;;;;;;;9.13;2.60;;;;;;;;;;5054251;28;20052;-78
2023/04/14 10:21:10;;;;;;;9.85;2.60;;;;;;;;;;5032460;28;20037;-78
2023/04/14 10:23:38;;;;;;;8.98;2.67;;;;;;;;;;5054114;28;20048;-78
2023/04/14 10:26:07;;;;;;;8.27;2.50;;;;;;;;;;5054183;28;20120;-79
2023/04/14 10:28:42;;;;;;;7.25;2.65;;;;;;;;;;5035949;28;20045;-78
2023/04/14 10:31:12;;;;;;;7.20;2.30;;;;;;;;;;5055028;28;20103;-78
2023/04/14 10:33:39;;;;;;;8.82;2.70;;;;;;;;;;5055199;28;20089;-79
2023/04/14 10:36:05;;;;;;;7.75;2.42;;;;;;;;;;5020011;28;20400;-77
2023/04/14 10:38:41;;;;;;;7.05;2.40;;;;;;;;;;5036467;28;20094;-78
2023/04/14 10:41:08;;;;;;;6.85;2.70;;;;;;;;;;5054918;28;20158;-78
2023/04/14 10:43:36;;;;;;;6.68;2.30;;;;;;;;;;5054586;28;20501;-77
2023/04/14 10:46:02;;;;;;;6.57;2.38;;;;;;;;;;5054878;28;20053;-76
2023/04/14 10:48:47;;;;;;;6.43;2.20;;;;;;;;;;5038054;28;20090;-77
2023/04/14 10:51:16;;;;;;;7.43;2.55;;;;;;;;;;5034425;28;20490;-80
2023/04/14 10:53:47;;;;;;;9.88;2.45;;;;;;;;;;5034905;28;20179;-77
2023/04/14 10:56:13;;;;;;;11.02;2.72;;;;;;;;;;4999231;28;20095;-77
2023/04/14 10:58:39;;;;;;;8.52;2.47;;;;;;;;;;5034761;28;20092;-76
2023/04/14 11:01:45;;;;;;;6.57;2.50;;;;;;;;;;5034744;28;20135;-76
2023/04/14 11:04:21;;;;;;;6.78;2.38;;;;;;;;;;4974202;28;20050;-76
2023/04/14 11:06:47;;;;;;;6.63;2.33;;;;;;;;;;4978848;28;20046;-76
2023/04/14 11:09:26;;;;;;;5.15;1.90;;;;;;;;;;5009263;28;20064;-77
2023/04/14 11:11:55;;;;;;;8.88;2.72;;;;;;;;;;5033479;28;20088;-76
2023/04/14 11:14:27;;;;;;;7.47;2.28;;;;;;;;;;5034214;28;20080;-76
2023/04/14 11:17:04;;;;;;;8.77;2.15;;;;;;;;;;5016675;28;20048;-77
2023/04/14 11:19:30;;;;;;;6.18;2.17;;;;;;;;;;5033505;28;20052;-77
2023/04/14 11:21:56;;;;;;;5.80;2.28;;;;;;;;;;5016559;28;20045;-77
2023/04/14 11:24:24;;;;;;;6.15;2.10;;;;;;;;;;5016650;28;20053;-76
2023/04/14 11:26:56;;;;;;;5.13;2.10;;;;;;;;;;5034091;28;20042;-76
2023/04/14 11:29:22;;;;;;;8.00;2.30;;;;;;;;;;5015948;28;20505;-76
2023/04/14 11:32:01;;;;;;;8.27;2.35;;;;;;;;;;5040611;28;20049;-75
2023/04/14 11:34:27;;;;;;;7.72;2.20;;;;;;;;;;5052552;28;20056;-76
2023/04/14 11:36:54;;;;;;;8.60;2.20;;;;;;;;;;5054119;28;20063;-76
2023/04/14 11:39:21;;;;;;;6.53;2.05;;;;;;;;;;5053891;28;20045;-76
2023/04/14 11:41:47;;;;;;;8.43;2.30;;;;;;;;;;5052254;28;20068;-76
2023/04/14 11:44:19;;;;;;;6.90;2.10;;;;;;;;;;5053311;28;20441;-76
2023/04/14 11:46:45;;;;;;;8.52;2.47;;;;;;;;;;5050074;28;20045;-76
2023/04/14 11:49:12;;;;;;;6.80;2.38;;;;;;;;;;5033682;28;20060;-76
2023/04/14 11:51:39;;;;;;;8.13;2.28;;;;;;;;;;5031976;28;20068;-76
2023/04/14 11:54:05;;;;;;;8.35;2.50;;;;;;;;;;5033801;28;20060;-76
2023/04/14 11:56:31;;;;;;;6.60;2.20;;;;;;;;;;5032241;28;20046;-76
2023/04/14 11:59:01;;;;;;;8.63;2.80;;;;;;;;;;5015555;28;20045;-75
2023/04/14 12:01:28;;;;;;;6.18;2.22;;;;;;;;;;5014049;28;20103;-75
2023/04/14 12:03:55;;;;;;;5.60;2.30;;;;;;;;;;5031149;28;20109;-75
2023/04/14 12:06:21;;;;;;;5.55;2.50;;;;;;;;;;5031819;28;20128;-75
2023/04/14 12:08:55;;;;;;;10.05;2.70;;;;;;;;;;5015228;28;20056;-75
2023/04/14 12:11:22;;;;;;;7.68;2.55;;;;;;;;;;5031450;28;20045;-75
2023/04/14 12:13:49;;;;;;;6.28;2.40;;;;;;;;;;5032930;28;20050;-76
2023/04/14 12:16:16;;;;;;;7.68;2.53;;;;;;;;;;5031759;28;20084;-77
2023/04/14 12:18:42;;;;;;;6.35;2.47;;;;;;;;;;5015208;28;20050;-76
2023/04/14 12:21:08;;;;;;;8.00;2.78;;;;;;;;;;5031705;28;20049;-76
2023/04/14 12:23:35;;;;;;;8.75;2.63;;;;;;;;;;5038704;28;20461;-76
2023/04/14 12:26:01;;;;;;;8.30;2.50;;;;;;;;;;5036696;28;20114;-76
2023/04/14 12:28:28;;;;;;;7.60;2.28;;;;;;;;;;5032733;28;20371;-76
2023/04/14 12:31:00;;;;;;;7.93;2.42;;;;;;;;;;5031392;28;20195;-76
2023/04/14 12:33:27;;;;;;;5.60;2.00;;;;;;;;;;5032978;28;20053;-75
2023/04/14 12:35:53;;;;;;;7.53;2.50;;;;;;;;;;5032372;28;20042;-76
2023/04/14 12:38:24;;;;;;;6.13;2.22;;;;;;;;;;5031592;28;20500;-76
2023/04/14 12:40:50;;;;;;;6.85;2.40;;;;;;;;;;5014181;28;20048;-75
2023/04/14 12:43:26;;;;;;;6.10;2.47;;;;;;;;;;5032643;28;20049;-75
2023/04/14 12:45:52;;;;;;;5.28;2.22;;;;;;;;;;5030085;28;20053;-74
2023/04/14 12:48:18;;;;;;;5.85;2.20;;;;;;;;;;5031392;28;20128;-75
2023/04/14 12:50:44;;;;;;;7.05;2.30;;;;;;;;;;5031129;28;20048;-74
2023/04/14 12:53:28;;;;;;;7.30;2.20;;;;;;;;;;5031094;28;20053;-74
2023/04/14 12:56:05;;;;;;;6.25;2.47;;;;;;;;;;5050156;28;20059;-74
2023/04/14 12:58:32;;;;;;;11.00;2.45;;;;;;;;;;5051229;28;20102;-74
2023/04/14 13:00:58;;;;;;;7.18;2.10;;;;;;;;;;5051054;28;20064;-74
2023/04/14 13:03:24;;;;;;;5.57;2.20;;;;;;;;;;5051748;28;20473;-75
2023/04/14 13:05:50;;;;;;;8.48;2.22;;;;;;;;;;5052340;28;20052;-74
2023/04/14 13:08:16;;;;;;;7.28;2.28;;;;;;;;;;5052361;28;20091;-74
2023/04/14 13:10:42;;;;;;;8.43;2.50;;;;;;;;;;5052287;28;20084;-75
2023/04/14 13:13:08;;;;;;;7.85;2.65;;;;;;;;;;5052416;28;20040;-75
2023/04/14 13:15:34;;;;;;;7.88;2.40;;;;;;;;;;5052211;28;20048;-75
2023/04/14 13:18:00;;;;;;;8.32;2.25;;;;;;;;;;5051608;28;20485;-75
2023/04/14 13:20:29;;;;;;;8.95;2.60;;;;;;;;;;5050449;28;20090;-75
2023/04/14 13:22:55;;;;;;;8.48;2.45;;;;;;;;;;5052023;28;20045;-75
2023/04/14 13:25:21;;;;;;;8.48;2.30;;;;;;;;;;5050613;28;20393;-76
2023/04/14 13:27:47;;;;;;;7.60;2.30;;;;;;;;;;5052406;28;20128;-75
2023/04/14 13:30:13;;;;;;;6.65;2.35;;;;;;;;;;5033716;28;20508;-75
2023/04/14 13:32:39;;;;;;;5.22;2.20;;;;;;;;;;5033084;28;20100;-75
2023/04/14 13:35:05;;;;;;;7.22;2.30;;;;;;;;;;5050034;28;20083;-75
2023/04/14 13:37:31;;;;;;;7.10;2.35;;;;;;;;;;5051163;28;20474;-75
2023/04/14 13:39:57;;;;;;;7.57;2.55;;;;;;;;;;5033854;28;20088;-75
2023/04/14 13:42:23;;;;;;;6.82;2.47;;;;;;;;;;5052214;28;20045;-75
2023/04/14 13:44:49;;;;;;;9.18;2.50;;;;;;;;;;5033901;28;20511;-75
2023/04/14 13:47:17;;;;;;;8.70;2.60;;;;;;;;;;5051708;28;20516;-74
2023/04/14 13:49:43;;;;;;;10.07;2.47;;;;;;;;;;5033550;28;20060;-74
2023/04/14 13:52:09;;;;;;;9.50;2.30;;;;;;;;;;5053120;28;20045;-74
2023/04/14 13:54:35;;;;;;;8.00;2.63;;;;;;;;;;5037428;28;20049;-75
2023/04/14 13:57:01;;;;;;;5.82;2.10;;;;;;;;;;5037787;28;20049;-75
2023/04/14 13:59:27;;;;;;;6.22;2.30;;;;;;;;;;5058074;28;20131;-74
2023/04/14 14:01:53;;;;;;;6.90;2.40;;;;;;;;;;5056224;28;20041;-74
2023/04/14 14:04:19;;;;;;;6.53;2.38;;;;;;;;;;5042220;28;20132;-74
2023/04/14 14:06:46;;;;;;;7.38;2.63;;;;;;;;;;5034881;28;20444;-74
2023/04/14 14:09:12;;;;;;;7.90;2.35;;;;;;;;;;5052819;28;20051;-75
2023/04/14 14:11:41;;;;;;;8.73;2.58;;;;;;;;;;5055069;28;20398;-74
2023/04/14 14:14:07;;;;;;;8.52;2.50;;;;;;;;;;5055468;28;20049;-75
2023/04/14 14:16:33;;;;;;;6.70;2.55;;;;;;;;;;5038246;28;20053;-75
2023/04/14 14:18:59;;;;;;;8.82;2.70;;;;;;;;;;5055310;28;20052;-75
2023/04/14 14:21:25;;;;;;;9.38;2.78;;;;;;;;;;5054465;28;20405;-76
2023/04/14 14:23:51;;;;;;;11.52;3.00;;;;;;;;;;5037033;28;20049;-75
2023/04/14 14:26:17;;;;;;;5.65;2.45;;;;;;;;;;5054696;28;20477;-75
2023/04/14 14:28:46;;;;;;;6.93;2.30;;;;;;;;;;5036640;28;20090;-74
2023/04/14 14:31:13;;;;;;;6.88;2.85;;;;;;;;;;5044126;28;20061;-74
2023/04/14 14:33:40;;;;;;;6.07;2.53;;;;;;;;;;5051965;28;20566;-77
2023/04/14 14:36:06;;;;;;;6.75;2.33;;;;;;;;;;5055062;28;20396;-75
2023/04/14 14:38:32;;;;;;;10.23;2.58;;;;;;;;;;5055000;28;20115;-75